Time;durP1;ratioP1;P1;durP2;ratioP2;P2;SDS_P1;SDS_P2;PMS_P1;PMS_P2;Temp;Humidity;BMP_temperature;BMP_pressure;BME280_temperature;BME280_humidity;BME280_pressure;Samples;Min_cycle;Max_cycle;Signal;HPM_P1;HPM_P2
2022/12/11 00:03:45;;;;;;;3.15;2.60;;;;;;;15.95;78.08;100807.66;20931710;28;20052;-87
2022/12/11 00:13:47;;;;;;;3.53;2.60;;;;;;;15.93;77.98;100797.03;20964238;28;20408;-87
2022/12/11 00:23:48;;;;;;;3.38;2.42;;;;;;;15.93;77.94;100798.88;20964222;28;20056;-87
2022/12/11 00:33:50;;;;;;;3.00;2.50;;;;;;;15.73;77.87;100769.09;20953421;28;20051;-87
2022/12/11 00:43:51;;;;;;;3.22;2.53;;;;;;;15.94;78.03;100801.41;20944905;28;20123;-86
2022/12/11 00:53:53;;;;;;;3.10;2.42;;;;;;;15.56;77.86;100740.09;20943785;28;20102;-87
2022/12/11 01:03:55;;;;;;;3.67;2.63;;;;;;;15.94;77.96;100798.72;20960234;28;20067;-86
2022/12/11 01:13:56;;;;;;;3.22;2.70;;;;;;;15.95;77.85;100796.91;20942574;28;20753;-87
2022/12/11 01:23:58;;;;;;;3.20;2.40;;;;;;;15.95;77.90;100799.59;20959390;28;20098;-87
2022/12/11 01:33:59;;;;;;;2.08;1.83;;;;;;;15.93;77.83;100799.72;20949962;28;20049;-86
2022/12/11 01:44:06;;;;;;;3.33;2.63;;;;;;;15.54;77.78;100736.69;20956811;28;20147;-87
2022/12/11 01:54:11;;;;;;;2.47;1.98;;;;;;;15.47;77.55;100715.75;20939737;28;20051;-87
2022/12/11 02:04:13;;;;;;;2.63;2.17;;;;;;;15.85;77.83;100782.47;20957269;28;20041;-87
2022/12/11 02:14:40;;;;;;;2.80;2.03;;;;;;;15.85;77.73;100766.38;20938710;28;20049;-87
2022/12/11 02:24:52;;;;;;;2.75;2.28;;;;;;;15.94;77.71;100790.69;20955256;28;20055;-87
2022/12/11 02:35:03;;;;;;;2.03;1.70;;;;;;;15.94;77.47;100792.53;20930355;28;20105;-87
2022/12/11 02:45:06;;;;;;;2.83;2.10;;;;;;;15.93;77.64;100786.28;20937799;28;20058;-87
2022/12/11 02:55:11;;;;;;;2.63;1.92;;;;;;;15.68;77.46;100739.09;20937124;28;20044;-87
2022/12/11 03:05:13;;;;;;;2.63;2.00;;;;;;;15.83;77.48;100753.09;20935018;28;20474;-87
2022/12/11 03:15:17;;;;;;;2.92;2.13;;;;;;;15.94;77.60;100763.81;20951065;28;20044;-87
2022/12/11 03:25:35;;;;;;;2.05;1.80;;;;;;;15.84;77.53;100752.13;20926609;28;20044;-87
2022/12/11 03:35:42;;;;;;;2.35;1.98;;;;;;;15.44;77.36;100690.97;20950042;28;20048;-87
2022/12/11 03:45:45;;;;;;;2.15;1.60;;;;;;;15.92;77.40;100773.84;20949364;28;20773;-87
2022/12/11 03:55:48;;;;;;;2.45;1.90;;;;;;;15.70;77.23;100733.63;20948902;28;20110;-87
2022/12/11 04:05:53;;;;;;;2.30;1.85;;;;;;;15.93;77.25;100761.28;20965046;28;20056;-87
2022/12/11 04:15:55;;;;;;;1.98;1.70;;;;;;;15.56;77.24;100702.53;20964683;28;20079;-87
2022/12/11 04:26:07;;;;;;;2.45;1.88;;;;;;;15.94;77.46;100752.25;20955244;28;20459;-87
2022/12/11 04:36:10;;;;;;;2.45;1.88;;;;;;;15.93;77.38;100774.72;20929402;28;20083;-87
2022/12/11 04:46:16;;;;;;;1.85;1.50;;;;;;;15.94;77.29;100754.94;20962378;28;20055;-87
2022/12/11 04:56:18;;;;;;;2.53;1.85;;;;;;;15.93;77.20;100751.38;20962132;28;20501;-87
2022/12/11 05:06:19;;;;;;;2.38;1.55;;;;;;;15.94;77.05;100752.25;20960350;28;20043;-88
2022/12/11 05:16:20;;;;;;;1.65;1.50;;;;;;;15.94;77.21;100733.47;20958947;28;20696;-87
2022/12/11 05:26:22;;;;;;;1.70;1.42;;;;;;;15.93;76.98;100723.69;20950230;28;20067;-87
2022/12/11 05:36:26;;;;;;;1.75;1.45;;;;;;;15.86;77.07;100706.34;20957882;28;20049;-87
2022/12/11 05:46:29;;;;;;;3.00;1.90;;;;;;;15.93;76.91;100721.00;20956681;28;20139;-88
2022/12/11 05:56:32;;;;;;;2.25;1.42;;;;;;;15.93;77.06;100721.00;20956847;28;20051;-87
2022/12/11 06:06:34;;;;;;;2.47;1.50;;;;;;;15.92;77.08;100717.47;20939051;28;20054;-87
2022/12/11 06:16:36;;;;;;;2.65;1.70;;;;;;;15.92;76.92;100706.72;20954641;28;20052;-88
2022/12/11 06:26:38;;;;;;;1.60;1.50;;;;;;;15.93;76.91;100718.34;20947485;28;20052;-88
2022/12/11 06:36:39;;;;;;;1.80;1.70;;;;;;;15.80;76.85;100695.13;20960333;28;20056;-87
2022/12/11 06:46:41;;;;;;;1.50;1.40;;;;;;;15.80;76.95;100700.50;20951885;28;20048;-87
2022/12/11 06:56:42;;;;;;;1.92;1.63;;;;;;;15.93;76.57;100715.66;20954909;28;20045;-87
2022/12/11 07:06:46;;;;;;;1.75;1.48;;;;;;;15.93;76.84;100729.91;20949726;28;20487;-87
2022/12/11 07:16:47;;;;;;;1.95;1.50;;;;;;;15.93;76.77;100727.22;20927032;28;20375;-87
2022/12/11 07:26:49;;;;;;;2.22;1.63;;;;;;;15.93;76.87;100745.19;20904559;28;20049;-88
2022/12/11 07:36:50;;;;;;;2.05;1.67;;;;;;;15.93;76.76;100758.59;20933847;28;20056;-84
2022/12/11 07:46:52;;;;;;;1.63;1.25;;;;;;;15.87;77.16;100732.19;20903467;28;20091;-84
2022/12/11 07:56:53;;;;;;;1.30;1.20;;;;;;;16.02;77.60;100749.78;20918623;28;20087;-83
2022/12/11 08:06:56;;;;;;;1.88;1.50;;;;;;;16.04;77.72;100742.44;20914224;28;20541;-85
2022/12/11 08:16:59;;;;;;;1.80;1.05;;;;;;;16.02;78.13;100736.34;20932448;28;20065;-84
2022/12/11 08:27:00;;;;;;;2.22;1.33;;;;;;;16.08;78.42;100751.94;20902388;28;20059;-85
2022/12/11 08:37:03;;;;;;;2.17;1.65;;;;;;;16.09;78.79;100753.66;20934360;28;20045;-85
2022/12/11 08:47:04;;;;;;;1.40;1.20;;;;;;;16.12;78.79;100757.06;20932553;28;20492;-84
2022/12/11 08:57:05;;;;;;;1.70;1.10;;;;;;;16.12;78.92;100759.75;20986282;28;20044;-84
2022/12/11 09:07:07;;;;;;;1.20;1.10;;;;;;;16.12;79.12;100749.84;20976211;28;20082;-85
2022/12/11 09:17:09;;;;;;;1.23;1.10;;;;;;;15.92;79.01;100695.16;20932349;28;20056;-92
2022/12/11 09:27:20;;;;;;;1.67;1.10;;;;;;;16.13;79.02;100730.09;20990730;27;20406;-88
2022/12/11 09:37:21;;;;;;;2.35;0.93;;;;;;;16.08;78.98;100729.59;20891600;28;20063;-87
2022/12/11 09:47:39;;;;;;;2.17;1.15;;;;;;;16.15;79.28;100740.69;20906734;28;20049;-87
2022/12/11 09:57:58;;;;;;;1.00;0.90;;;;;;;15.90;79.19;100692.56;20925762;28;20072;-88
2022/12/11 10:08:07;;;;;;;1.42;1.00;;;;;;;16.14;79.28;100720.19;20917198;28;20048;-87
2022/12/11 10:18:12;;;;;;;1.50;1.23;;;;;;;16.14;79.06;100728.25;20899387;28;20045;-87
2022/12/11 10:28:17;;;;;;;1.58;1.20;;;;;;;16.15;79.25;100721.88;20934953;28;20390;-87
2022/12/11 10:38:29;;;;;;;1.27;1.13;;;;;;;15.54;79.19;100618.66;20853628;28;20386;-86
2022/12/11 10:48:32;;;;;;;1.10;1.00;;;;;;;16.15;79.14;100724.56;20840396;28;20061;-88
2022/12/11 10:58:38;;;;;;;1.40;1.30;;;;;;;16.15;79.07;100713.81;20840853;28;20136;-87
2022/12/11 11:08:45;;;;;;;1.20;0.98;;;;;;;16.15;78.98;100719.19;20835747;28;20133;-88
2022/12/11 11:18:53;;;;;;;1.20;1.00;;;;;;;16.13;79.06;100708.59;20850328;28;20143;-87
2022/12/11 11:28:56;;;;;;;1.02;0.93;;;;;;;16.14;79.04;100701.38;20859657;28;20159;-88
2022/12/11 11:39:13;;;;;;;1.55;1.05;;;;;;;16.13;78.90;100692.50;20863394;28;20044;-87
2022/12/11 11:49:36;;;;;;;1.13;1.00;;;;;;;16.13;78.91;100675.50;20872054;28;20155;-88
2022/12/11 11:59:46;;;;;;;1.15;1.02;;;;;;;16.13;78.79;100683.56;20871941;28;20060;-87
2022/12/11 12:10:12;;;;;;;1.13;1.00;;;;;;;16.13;78.67;100676.38;20849418;28;20048;-88
2022/12/11 12:20:20;;;;;;;1.27;0.98;;;;;;;16.14;78.67;100674.53;20839683;28;20462;-88
2022/12/11 12:30:22;;;;;;;1.45;1.17;;;;;;;15.95;78.81;100655.44;20833563;28;20660;-88
2022/12/11 12:40:46;;;;;;;1.73;1.27;;;;;;;16.13;78.52;100668.31;20841766;28;20063;-88
2022/12/11 12:50:48;;;;;;;1.38;1.08;;;;;;;15.89;78.49;100633.63;20848036;28;20519;-88
2022/12/11 13:00:49;;;;;;;1.80;1.25;;;;;;;16.13;78.55;100672.81;20834829;28;20056;-88
2022/12/11 13:10:59;;;;;;;0.93;0.82;;;;;;;16.06;78.61;100662.59;20823441;28;20067;-87
2022/12/11 13:21:03;;;;;;;1.23;1.00;;;;;;;16.12;78.50;100660.38;20840533;28;20047;-87
2022/12/11 13:31:14;;;;;;;1.38;1.10;;;;;;;16.13;78.36;100675.50;20830574;28;20071;-88
2022/12/11 13:41:17;;;;;;;1.25;1.00;;;;;;;16.12;78.35;100688.06;20834947;28;20049;-87
2022/12/11 13:51:21;;;;;;;1.23;0.98;;;;;;;16.12;78.18;100681.88;20865106;28;20075;-88
2022/12/11 14:01:26;;;;;;;1.25;1.02;;;;;;;16.11;78.07;100686.38;20835732;28;20515;-88
2022/12/11 14:11:39;;;;;;;1.30;0.93;;;;;;;16.13;78.11;100688.94;20849103;28;20123;-87
2022/12/11 14:21:41;;;;;;;1.10;0.90;;;;;;;16.02;78.12;100688.03;20859740;28;20049;-88
2022/12/11 14:31:43;;;;;;;1.15;1.00;;;;;;;16.11;78.22;100698.97;20856144;28;20095;-90
2022/12/11 14:41:48;;;;;;;1.10;0.90;;;;;;;16.11;78.15;100701.66;20845840;28;20145;-90
2022/12/11 14:51:50;;;;;;;1.20;0.90;;;;;;;16.09;77.98;100699.94;20838550;28;20414;-88
2022/12/11 15:02:01;;;;;;;1.58;1.02;;;;;;;16.10;77.85;100695.41;20860235;28;20412;-87
2022/12/11 15:12:21;;;;;;;1.23;1.00;;;;;;;16.02;77.75;100677.28;20854733;28;20045;-87
2022/12/11 15:22:27;;;;;;;1.42;1.23;;;;;;;16.11;77.99;100680.16;20862363;28;20127;-88
2022/12/11 15:32:29;;;;;;;1.30;1.02;;;;;;;16.09;77.87;100691.88;20857837;28;20048;-86
2022/12/11 15:42:36;;;;;;;1.23;0.90;;;;;;;15.80;77.63;100652.19;20863461;28;20057;-85
2022/12/11 15:52:37;;;;;;;1.25;1.10;;;;;;;16.07;77.61;100696.53;20849634;28;20417;-88
2022/12/11 16:02:38;;;;;;;1.27;1.08;;;;;;;16.07;77.63;100701.91;20857331;28;20076;-88
2022/12/11 16:12:41;;;;;;;1.48;1.10;;;;;;;15.46;77.21;100600.50;20850848;28;20056;-88
2022/12/11 16:22:43;;;;;;;1.60;1.17;;;;;;;16.06;76.85;100704.69;20848104;28;20057;-87
2022/12/11 16:32:45;;;;;;;1.65;1.30;;;;;;;16.04;76.86;100696.78;20842307;28;20049;-89
2022/12/11 16:42:48;;;;;;;1.30;1.20;;;;;;;15.85;76.70;100673.28;20835156;28;20053;-87
2022/12/11 16:52:49;;;;;;;1.73;1.38;;;;;;;16.00;76.63;100706.09;20860479;28;20157;-88
2022/12/11 17:02:51;;;;;;;2.17;1.10;;;;;;;15.67;76.25;100651.50;20841596;28;20064;-86
2022/12/11 17:12:52;;;;;;;1.88;1.40;;;;;;;15.90;76.25;100700.63;20846852;28;20129;-87
2022/12/11 17:22:54;;;;;;;1.70;1.30;;;;;;;15.70;76.38;100664.69;20849677;28;20102;-89
2022/12/11 17:32:55;;;;;;;1.75;1.38;;;;;;;15.75;76.34;100691.97;20833657;28;20057;-89
2022/12/11 17:42:57;;;;;;;1.50;1.25;;;;;;;15.95;76.74;100721.75;20845088;28;20098;-90
2022/12/11 17:52:58;;;;;;;2.95;1.17;;;;;;;15.94;76.56;100717.34;20874763;28;20413;-92
2022/12/11 18:03:00;;;;;;;1.70;1.48;;;;;;;15.75;76.58;100686.63;20876298;28;20064;-87
2022/12/11 18:13:02;;;;;;;1.80;1.40;;;;;;;15.94;76.66;100714.66;20880478;28;20040;-85
2022/12/11 18:23:04;;;;;;;1.48;1.38;;;;;;;15.94;76.79;100710.13;20848727;28;20053;-85
2022/12/11 18:33:05;;;;;;;2.42;1.45;;;;;;;15.74;76.67;100679.53;20845159;28;20047;-84
2022/12/11 18:43:07;;;;;;;1.73;1.40;;;;;;;15.62;76.71;100656.41;20888894;28;20140;-85
2022/12/11 18:53:08;;;;;;;1.33;1.20;;;;;;;15.92;76.63;100713.94;20889600;28;20493;-85
2022/12/11 19:03:11;;;;;;;1.08;1.00;;;;;;;15.72;76.84;100680.66;20877499;28;20076;-85
2022/12/11 19:13:13;;;;;;;1.40;1.30;;;;;;;15.91;76.64;100709.56;20877447;28;20041;-85
2022/12/11 19:23:15;;;;;;;1.55;1.38;;;;;;;15.91;76.80;100717.59;20877936;28;20450;-85
2022/12/11 19:33:16;;;;;;;1.73;1.33;;;;;;;15.80;76.87;100689.78;20930825;28;20048;-85
2022/12/11 19:43:18;;;;;;;1.48;1.35;;;;;;;15.62;76.61;100669.84;20928270;28;20053;-84
2022/12/11 19:53:20;;;;;;;1.83;1.20;;;;;;;15.71;76.22;100695.06;20887536;28;20053;-85
2022/12/11 20:03:21;;;;;;;2.00;1.33;;;;;;;15.89;76.58;100714.16;20869390;28;20140;-85
2022/12/11 20:13:23;;;;;;;1.80;1.30;;;;;;;15.89;76.33;100725.78;20877254;28;20063;-85
2022/12/11 20:23:25;;;;;;;1.65;1.02;;;;;;;15.78;76.36;100715.06;20994514;27;20057;-85
2022/12/11 20:33:26;;;;;;;1.58;1.10;;;;;;;15.78;76.38;100715.06;20434047;28;20084;-86
2022/12/11 20:54:03;;;;;;;1.45;1.17;;;;;;;15.88;76.16;100733.94;21080669;27;20126;-86
2022/12/11 21:04:04;;;;;;;3.28;1.40;;;;;;;15.89;76.52;100731.16;20450505;28;20064;-85
2022/12/11 21:14:20;;;;;;;1.50;1.30;;;;;;;15.58;76.25;100690.69;21095517;27;20149;-85
2022/12/11 21:24:23;;;;;;;1.58;1.45;;;;;;;15.68;76.18;100706.91;20757553;28;20078;-85
2022/12/11 21:41:15;;;;;;;1.65;1.25;;;;;;;15.90;76.10;100740.03;21069747;27;20488;-85
2022/12/11 21:51:22;;;;;;;1.58;1.10;;;;;;;15.90;75.94;100734.66;20396341;28;20144;-86
2022/12/11 22:07:55;;;;;;;1.55;1.10;;;;;;;15.90;76.11;100737.34;21064293;27;20668;-85
2022/12/11 22:17:56;;;;;;;1.92;1.20;;;;;;;15.81;76.14;100730.91;20494858;28;20082;-85
2022/12/11 22:34:55;;;;;;;1.63;1.30;;;;;;;15.90;76.17;100756.13;21017731;27;20136;-85
2022/12/11 22:44:55;;;;;;;1.60;1.30;;;;;;;15.83;76.14;100747.72;20192342;28;20160;-85
2022/12/11 23:02:23;;;;;;;1.48;0.98;;;;;;;15.71;75.83;100728.13;21086147;27;20128;-85
2022/12/11 23:12:23;;;;;;;2.10;1.52;;;;;;;15.69;75.93;100724.69;20615371;28;20056;-85
2022/12/11 23:29:50;;;;;;;1.33;1.00;;;;;;;15.90;75.83;100764.19;21314587;27;20122;-85
2022/12/11 23:39:51;;;;;;;1.33;1.20;;;;;;;15.71;75.76;100732.66;20948290;27;20061;-85
2022/12/11 23:57:03;;;;;;;1.10;1.00;;;;;;;15.90;75.71;100780.31;20995896;27;20131;-85
